createdAt,value
2019-02-21T00:00:23.471Z,86.053467
2019-02-21T00:01:23.790Z,86.053467
2019-02-21T00:02:33.312Z,86.053467
2019-02-21T00:03:42.837Z,85.949707
2019-02-21T00:04:52.370Z,85.949707
2019-02-21T00:06:01.901Z,85.949707
2019-02-21T00:07:11.403Z,86.053467
2019-02-21T00:08:20.939Z,86.157227
2019-02-21T00:09:30.450Z,86.260986
2019-02-21T00:10:39.963Z,86.260986
2019-02-21T00:11:49.485Z,86.260986
2019-02-21T00:12:59.042Z,86.260986
2019-02-21T00:14:08.569Z,86.260986
2019-02-21T00:15:18.073Z,86.260986
2019-02-21T00:16:27.583Z,86.260986
2019-02-21T00:17:37.106Z,86.364746
2019-02-21T00:18:46.644Z,86.364746
2019-02-21T00:19:56.169Z,86.364746
2019-02-21T00:21:05.689Z,86.364746
2019-02-21T00:22:15.222Z,86.364746
2019-02-21T00:23:24.764Z,86.468506
2019-02-21T00:24:34.267Z,86.572266
2019-02-21T00:25:44.780Z,86.61499
2019-02-21T00:26:54.279Z,86.71875
2019-02-21T00:28:04.811Z,86.82251
2019-02-21T00:29:14.368Z,86.82251
2019-02-21T00:30:34.519Z,86.82251
2019-02-21T00:31:34.400Z,86.82251
2019-02-21T00:32:44.900Z,86.82251
2019-02-21T00:33:54.446Z,86.82251
2019-02-21T00:35:03.991Z,86.82251
2019-02-21T00:36:13.503Z,86.82251
2019-02-21T00:37:23.025Z,86.82251
2019-02-21T00:38:32.571Z,86.82251
2019-02-21T00:39:42.103Z,86.71875
2019-02-21T00:40:51.636Z,86.71875
2019-02-21T00:42:01.149Z,86.71875
2019-02-21T00:43:10.682Z,86.82251
2019-02-21T00:44:20.221Z,86.71875
2019-02-21T00:45:29.735Z,86.61499
2019-02-21T00:46:39.248Z,86.71875
2019-02-21T00:47:48.754Z,86.71875
2019-02-21T00:48:58.270Z,86.82251
2019-02-21T00:50:07.814Z,86.82251
2019-02-21T00:51:17.350Z,86.71875
2019-02-21T00:52:26.851Z,86.71875
2019-02-21T00:53:36.385Z,86.71875
2019-02-21T00:54:45.911Z,86.71875
2019-02-21T00:55:55.417Z,86.61499
2019-02-21T00:57:04.947Z,86.61499
2019-02-21T00:58:14.475Z,86.51123
2019-02-21T00:59:24.043Z,86.297607
2019-02-21T01:00:33.526Z,86.053467
2019-02-21T01:01:44.038Z,85.949707
2019-02-21T01:02:53.550Z,85.845947
2019-02-21T01:04:03.069Z,85.845947
2019-02-21T01:05:12.588Z,85.949707
2019-02-21T01:06:22.096Z,86.193848
2019-02-21T01:07:31.604Z,86.407471
2019-02-21T01:08:41.127Z,86.51123
2019-02-21T01:09:50.633Z,86.51123
2019-02-21T01:11:00.138Z,86.407471
2019-02-21T01:12:09.644Z,86.407471
2019-02-21T01:13:19.159Z,86.407471
2019-02-21T01:14:28.680Z,86.297607
2019-02-21T01:15:38.185Z,86.297607
2019-02-21T01:16:47.696Z,86.193848
2019-02-21T01:17:57.197Z,86.193848
2019-02-21T01:19:06.727Z,86.297607
2019-02-21T01:20:16.234Z,86.193848
2019-02-21T01:21:25.736Z,86.193848
2019-02-21T01:22:35.252Z,86.193848
2019-02-21T01:23:44.762Z,86.193848
2019-02-21T01:24:54.269Z,86.090088
2019-02-21T01:26:03.772Z,86.090088
2019-02-21T01:27:13.274Z,86.090088
2019-02-21T01:28:22.775Z,86.090088
2019-02-21T01:29:32.295Z,86.090088
2019-02-21T01:30:41.797Z,86.090088
2019-02-21T01:31:52.295Z,86.193848
2019-02-21T01:33:01.801Z,86.297607
2019-02-21T01:34:11.319Z,86.444092
2019-02-21T01:35:20.826Z,86.51123
2019-02-21T01:36:30.327Z,86.51123
2019-02-21T01:37:39.840Z,86.51123
2019-02-21T01:38:49.507Z,86.407471
2019-02-21T01:39:59.023Z,86.407471
2019-02-21T01:41:08.527Z,86.297607
2019-02-21T01:42:18.047Z,86.297607
2019-02-21T01:43:27.549Z,86.193848
2019-02-21T01:44:37.068Z,86.193848
2019-02-21T01:45:46.575Z,86.090088
2019-02-21T01:46:56.096Z,86.090088
2019-02-21T01:48:05.608Z,85.986328
2019-02-21T01:49:15.157Z,85.986328
2019-02-21T01:50:24.667Z,85.882568
2019-02-21T01:51:34.169Z,85.882568
2019-02-21T01:52:43.673Z,85.778809
2019-02-21T01:53:53.203Z,85.742188
2019-02-21T01:55:02.746Z,85.778809
2019-02-21T01:56:12.251Z,85.638428
2019-02-21T01:57:21.776Z,85.742188
2019-02-21T01:58:31.286Z,85.742188
2019-02-21T01:59:40.797Z,85.638428
2019-02-21T02:00:50.302Z,85.638428
2019-02-21T02:01:59.798Z,85.534668
2019-02-21T02:03:09.298Z,85.430908
2019-02-21T02:04:18.827Z,85.430908
2019-02-21T02:05:28.343Z,85.327148
2019-02-21T02:06:37.849Z,85.327148
2019-02-21T02:07:47.358Z,85.223389
2019-02-21T02:08:56.867Z,85.223389
2019-02-21T02:10:06.381Z,85.223389
2019-02-21T02:11:15.888Z,85.119629
2019-02-21T02:12:25.392Z,85.223389
2019-02-21T02:13:34.900Z,85.223389
2019-02-21T02:14:44.418Z,85.36377
2019-02-21T02:15:53.917Z,85.467529
2019-02-21T02:17:03.426Z,85.467529
2019-02-21T02:18:12.929Z,85.467529
2019-02-21T02:19:22.454Z,85.467529
2019-02-21T02:20:31.964Z,85.467529
2019-02-21T02:21:41.479Z,85.36377
2019-02-21T02:22:50.983Z,85.467529
2019-02-21T02:24:00.485Z,85.571289
2019-02-21T02:25:10.056Z,85.571289
2019-02-21T02:26:19.568Z,85.571289
2019-02-21T02:27:29.071Z,85.571289
2019-02-21T02:28:38.578Z,85.571289
2019-02-21T02:29:48.111Z,85.675049
2019-02-21T02:30:57.626Z,85.675049
2019-02-21T02:32:09.520Z,85.778809
2019-02-21T02:33:16.640Z,85.778809
2019-02-21T02:34:26.185Z,85.882568
2019-02-21T02:35:35.704Z,85.778809
2019-02-21T02:36:45.203Z,85.778809
2019-02-21T02:37:54.741Z,85.778809
2019-02-21T02:39:04.253Z,85.778809
2019-02-21T02:40:13.800Z,85.778809
2019-02-21T02:41:23.341Z,85.778809
2019-02-21T02:42:32.861Z,85.925293
2019-02-21T02:43:42.383Z,85.882568
2019-02-21T02:44:51.922Z,85.882568
2019-02-21T02:46:01.426Z,85.925293
2019-02-21T02:47:10.937Z,85.882568
2019-02-21T02:48:20.478Z,85.882568
2019-02-21T02:49:29.993Z,85.925293
2019-02-21T02:50:39.521Z,85.925293
2019-02-21T02:51:49.034Z,86.029053
2019-02-21T02:52:58.582Z,85.925293
2019-02-21T02:54:08.099Z,86.029053
2019-02-21T02:55:17.645Z,86.132812
2019-02-21T02:56:27.161Z,86.132812
2019-02-21T02:57:36.668Z,86.236572
2019-02-21T02:58:46.172Z,86.236572
2019-02-21T02:59:55.696Z,86.236572
2019-02-21T03:01:05.225Z,86.340332
2019-02-21T03:02:14.735Z,86.444092
2019-02-21T03:03:24.246Z,86.444092
2019-02-21T03:04:33.822Z,86.547852
2019-02-21T03:05:43.372Z,86.651611
2019-02-21T03:06:52.889Z,86.651611
2019-02-21T03:08:02.384Z,86.755371
2019-02-21T03:09:11.914Z,86.651611
2019-02-21T03:10:21.459Z,86.651611
2019-02-21T03:11:30.960Z,86.798096
2019-02-21T03:12:40.473Z,86.901855
2019-02-21T03:13:50.021Z,86.901855
2019-02-21T03:14:59.570Z,87.005615
2019-02-21T03:16:09.160Z,86.901855
2019-02-21T03:17:18.664Z,86.755371
2019-02-21T03:18:28.175Z,86.651611
2019-02-21T03:19:37.702Z,86.651611
2019-02-21T03:20:47.237Z,86.547852
2019-02-21T03:21:56.771Z,86.651611
2019-02-21T03:23:06.269Z,86.651611
2019-02-21T03:24:15.777Z,86.651611
2019-02-21T03:25:25.322Z,86.651611
2019-02-21T03:26:34.814Z,86.651611
2019-02-21T03:27:44.326Z,86.590576
2019-02-21T03:28:53.838Z,86.798096
2019-02-21T03:30:03.379Z,86.651611
2019-02-21T03:31:13.918Z,86.651611
2019-02-21T03:32:23.425Z,86.547852
2019-02-21T03:33:32.963Z,86.444092
2019-02-21T03:34:42.460Z,86.236572
2019-02-21T03:35:52.009Z,86.029053
2019-02-21T03:37:01.558Z,85.925293
2019-02-21T03:38:11.058Z,85.821533
2019-02-21T03:39:20.574Z,85.717773
2019-02-21T03:40:30.093Z,85.614014
2019-02-21T03:41:39.629Z,85.510254
2019-02-21T03:42:49.145Z,85.510254
2019-02-21T03:43:58.667Z,85.406494
2019-02-21T03:45:07.183Z,85.510254
2019-02-21T03:46:16.712Z,85.510254
2019-02-21T03:47:26.220Z,85.614014
2019-02-21T03:48:35.731Z,85.614014
2019-02-21T03:49:45.243Z,85.717773
2019-02-21T03:50:54.806Z,85.717773
2019-02-21T03:52:04.325Z,85.717773
2019-02-21T03:53:13.847Z,85.717773
2019-02-21T03:54:23.352Z,85.717773
2019-02-21T03:55:32.883Z,85.821533
2019-02-21T03:56:42.421Z,85.821533
2019-02-21T03:57:51.973Z,85.925293
2019-02-21T03:59:01.483Z,85.925293
2019-02-21T04:00:11.006Z,86.029053
2019-02-21T04:01:20.531Z,85.925293
2019-02-21T04:02:30.042Z,85.821533
2019-02-21T04:03:39.566Z,85.821533
2019-02-21T04:04:49.093Z,85.717773
2019-02-21T04:05:58.614Z,85.717773
2019-02-21T04:07:08.132Z,85.717773
2019-02-21T04:08:17.644Z,85.717773
2019-02-21T04:09:27.152Z,85.717773
2019-02-21T04:10:36.662Z,85.821533
2019-02-21T04:11:46.224Z,85.717773
2019-02-21T04:12:55.740Z,85.821533
2019-02-21T04:14:05.267Z,85.717773
2019-02-21T04:15:14.765Z,85.614014
2019-02-21T04:16:24.322Z,85.614014
2019-02-21T04:17:33.908Z,85.510254
2019-02-21T04:18:43.443Z,85.510254
2019-02-21T04:19:52.964Z,85.510254
2019-02-21T04:21:02.511Z,85.510254
2019-02-21T04:22:12.035Z,85.510254
2019-02-21T04:23:21.583Z,85.510254
2019-02-21T04:24:31.120Z,85.510254
2019-02-21T04:25:40.641Z,85.510254
2019-02-21T04:26:50.169Z,85.614014
2019-02-21T04:27:59.699Z,85.510254
2019-02-21T04:29:09.212Z,85.510254
2019-02-21T04:30:18.741Z,85.510254
2019-02-21T04:31:28.259Z,85.510254
2019-02-21T04:32:37.807Z,85.614014
2019-02-21T04:33:47.331Z,85.717773
2019-02-21T04:34:56.895Z,85.614014
2019-02-21T04:36:06.453Z,85.614014
2019-02-21T04:37:15.976Z,85.510254
2019-02-21T04:38:25.494Z,85.510254
2019-02-21T04:39:35.041Z,85.406494
2019-02-21T04:40:44.562Z,85.406494
2019-02-21T04:41:55.093Z,85.406494
2019-02-21T04:43:04.625Z,85.510254
2019-02-21T04:44:14.163Z,85.614014
2019-02-21T04:45:23.698Z,85.614014
2019-02-21T04:46:33.250Z,85.614014
2019-02-21T04:47:42.778Z,85.510254
2019-02-21T04:48:52.295Z,85.510254
2019-02-21T04:50:01.792Z,85.858154
2019-02-21T04:51:11.328Z,85.961914
2019-02-21T04:52:20.859Z,86.065674
2019-02-21T04:53:30.399Z,86.065674
2019-02-21T04:54:39.931Z,86.169434
2019-02-21T04:55:49.431Z,86.273193
2019-02-21T04:56:58.951Z,86.273193
2019-02-21T04:58:08.517Z,86.273193
2019-02-21T04:59:18.042Z,86.486816
2019-02-21T05:00:27.563Z,86.376953
2019-02-21T05:01:37.096Z,86.523438
2019-02-21T05:02:46.603Z,86.730957
2019-02-21T05:03:56.128Z,86.834717
2019-02-21T05:05:05.658Z,86.834717
2019-02-21T05:06:15.210Z,86.834717
2019-02-21T05:07:24.751Z,86.730957
2019-02-21T05:08:34.259Z,86.730957
2019-02-21T05:09:43.804Z,86.730957
2019-02-21T05:10:54.331Z,86.627197
2019-02-21T05:12:03.873Z,86.730957
2019-02-21T05:13:13.407Z,86.730957
2019-02-21T05:14:22.935Z,86.834717
2019-02-21T05:15:32.469Z,86.730957
2019-02-21T05:16:44.494Z,86.834717
2019-02-21T05:17:51.528Z,86.834717
2019-02-21T05:19:01.054Z,86.834717
2019-02-21T05:20:10.577Z,86.730957
2019-02-21T05:21:20.082Z,86.730957
2019-02-21T05:22:29.620Z,86.730957
2019-02-21T05:23:39.136Z,86.730957
2019-02-21T05:24:48.638Z,86.730957
2019-02-21T05:25:58.182Z,86.730957
2019-02-21T05:27:07.732Z,86.730957
2019-02-21T05:28:17.258Z,86.834717
2019-02-21T05:29:27.752Z,86.834717
2019-02-21T05:30:37.268Z,86.730957
2019-02-21T05:31:46.789Z,86.730957
2019-02-21T05:32:56.302Z,86.730957
2019-02-21T05:34:05.803Z,86.627197
2019-02-21T05:35:15.337Z,86.627197
2019-02-21T05:36:24.838Z,86.627197
2019-02-21T05:37:34.365Z,86.730957
2019-02-21T05:38:43.898Z,86.730957
2019-02-21T05:39:53.415Z,86.627197
2019-02-21T05:41:04.333Z,86.834717
2019-02-21T05:42:12.445Z,86.938477
2019-02-21T05:43:21.969Z,87.084961
2019-02-21T05:44:33.574Z,87.084961
2019-02-21T05:45:41.988Z,87.042236
2019-02-21T05:46:51.559Z,86.938477
2019-02-21T05:48:01.325Z,86.834717
2019-02-21T05:49:11.513Z,86.938477
2019-02-21T05:50:20.175Z,86.938477
2019-02-21T05:51:29.692Z,86.938477
2019-02-21T05:52:39.220Z,86.938477
2019-02-21T05:53:49.739Z,86.938477
2019-02-21T05:54:59.269Z,86.938477
2019-02-21T05:56:08.769Z,87.042236
2019-02-21T05:57:18.315Z,87.042236
2019-02-21T05:58:27.846Z,87.145996
2019-02-21T05:59:37.362Z,87.042236
2019-02-21T06:00:46.888Z,86.938477
2019-02-21T06:01:56.435Z,86.834717
2019-02-21T06:03:05.959Z,86.938477
2019-02-21T06:04:15.486Z,86.938477
2019-02-21T06:05:25.027Z,86.730957
2019-02-21T06:06:34.553Z,86.730957
2019-02-21T06:07:44.073Z,86.627197
2019-02-21T06:08:53.614Z,86.627197
2019-02-21T06:10:03.142Z,86.730957
2019-02-21T06:11:12.669Z,86.730957
2019-02-21T06:12:33.042Z,86.523438
2019-02-21T06:13:33.681Z,86.523438
2019-02-21T06:14:43.226Z,86.419678
2019-02-21T06:15:52.766Z,86.523438
2019-02-21T06:17:02.310Z,86.523438
2019-02-21T06:18:11.821Z,86.523438
2019-02-21T06:19:22.343Z,86.419678
2019-02-21T06:20:33.631Z,86.877441
2019-02-21T06:21:41.380Z,87.084961
2019-02-21T06:22:50.925Z,87.39624
2019-02-21T06:24:00.445Z,87.70752
2019-02-21T06:25:09.966Z,87.854004
2019-02-21T06:26:19.492Z,87.854004
2019-02-21T06:27:29.008Z,87.854004
2019-02-21T06:28:39.522Z,87.957764
2019-02-21T06:29:49.021Z,88.061523
2019-02-21T06:30:58.528Z,88.165283
2019-02-21T06:32:14.038Z,88.061523
2019-02-21T06:33:18.583Z,88.061523
2019-02-21T06:34:28.092Z,88.018799
2019-02-21T06:35:37.609Z,87.915039
2019-02-21T06:36:47.139Z,87.811279
2019-02-21T06:37:56.733Z,87.70752
2019-02-21T06:39:06.304Z,87.70752
2019-02-21T06:40:15.867Z,87.70752
2019-02-21T06:41:25.376Z,87.60376
2019-02-21T06:42:34.906Z,87.5
2019-02-21T06:43:44.471Z,87.39624
2019-02-21T06:44:53.985Z,87.29248
2019-02-21T06:46:03.488Z,87.084961
2019-02-21T06:47:13.000Z,87.188721
2019-02-21T06:48:22.532Z,87.188721
2019-02-21T06:49:33.020Z,87.188721
2019-02-21T06:50:41.570Z,87.084961
2019-02-21T06:51:52.088Z,86.981201
2019-02-21T06:53:01.610Z,86.627197
2019-02-21T06:54:11.144Z,86.419678
2019-02-21T06:55:20.746Z,86.212158
2019-02-21T06:56:30.163Z,85.858154
2019-02-21T06:57:39.675Z,85.546875
2019-02-21T06:58:49.181Z,85.235596
2019-02-21T06:59:58.765Z,84.820557
2019-02-21T07:01:08.280Z,84.472656
2019-02-21T07:02:17.787Z,84.155273
2019-02-21T07:03:29.033Z,83.843994
2019-02-21T07:04:36.881Z,83.496094
2019-02-21T07:05:46.328Z,83.184814
2019-02-21T07:06:56.828Z,82.873535
2019-02-21T07:08:05.429Z,82.458496
2019-02-21T07:09:14.942Z,82.214355
2019-02-21T07:10:24.500Z,82.006836
2019-02-21T07:11:33.004Z,81.695557
2019-02-21T07:12:42.506Z,81.243896
2019-02-21T07:13:52.105Z,80.932617
2019-02-21T07:15:01.673Z,80.621338
2019-02-21T07:16:13.051Z,80.517578
2019-02-21T07:17:20.704Z,80.163574
2019-02-21T07:18:31.207Z,79.748535
2019-02-21T07:19:40.716Z,79.547119
2019-02-21T07:20:50.236Z,79.3396
2019-02-21T07:21:59.804Z,78.991699
2019-02-21T07:23:11.323Z,78.78418
2019-02-21T07:24:19.785Z,78.369141
2019-02-21T07:25:29.292Z,78.33252
2019-02-21T07:26:38.797Z,77.709961
2019-02-21T07:27:48.317Z,77.502441
2019-02-21T07:28:58.415Z,77.050781
2019-02-21T07:30:07.325Z,76.947021
2019-02-21T07:31:27.969Z,76.324463
2019-02-21T07:32:28.355Z,76.123047
2019-02-21T07:33:37.877Z,76.086426
2019-02-21T07:34:47.371Z,75.671387
2019-02-21T07:35:56.889Z,75.708008
2019-02-21T07:37:17.723Z,76.019287
2019-02-21T07:38:17.271Z,76.019287
2019-02-21T07:39:35.479Z,76.226807
2019-02-21T07:40:36.877Z,76.019287
2019-02-21T07:41:46.379Z,75.915527
2019-02-21T07:42:58.464Z,75.878906
2019-02-21T07:44:11.861Z,75.567627
2019-02-21T07:45:15.882Z,75.427246
2019-02-21T07:46:25.398Z,75.018311
2019-02-21T07:47:35.905Z,74.047852
2019-02-21T07:48:45.422Z,73.535156
2019-02-21T07:49:54.935Z,73.498535
2019-02-21T07:51:04.448Z,72.77832
2019-02-21T07:52:13.959Z,72.875977
2019-02-21T07:53:23.492Z,72.570801
2019-02-21T07:54:32.994Z,72.43042
2019-02-21T07:55:42.494Z,71.984863
2019-02-21T07:56:52.009Z,71.466064
2019-02-21T07:58:03.829Z,71.264648
2019-02-21T07:59:12.086Z,70.507812
2019-02-21T08:00:20.572Z,70.611572
2019-02-21T08:01:30.078Z,70.166016
2019-02-21T08:02:39.678Z,69.30542
2019-02-21T08:03:49.190Z,68.792725
2019-02-21T08:04:58.713Z,68.139648
2019-02-21T08:06:08.213Z,67.285156
2019-02-21T08:07:17.729Z,67.077637
2019-02-21T08:08:27.256Z,67.181396
2019-02-21T08:09:37.754Z,67.254639
2019-02-21T08:10:47.248Z,66.638184
2019-02-21T08:11:56.758Z,65.783691
2019-02-21T08:13:06.271Z,65.063477
2019-02-21T08:14:16.239Z,65.368652
2019-02-21T08:15:27.503Z,65.29541
2019-02-21T08:16:34.852Z,65.814209
2019-02-21T08:17:44.353Z,66.253662
2019-02-21T08:18:53.874Z,66.326904
2019-02-21T08:20:08.105Z,65.985107
2019-02-21T08:21:13.877Z,65.264893
2019-02-21T08:22:23.403Z,65.161133
2019-02-21T08:23:32.951Z,64.929199
2019-02-21T08:24:42.480Z,64.312744
2019-02-21T08:25:51.991Z,63.867188
2019-02-21T08:27:01.528Z,63.970947
2019-02-21T08:28:11.029Z,63.562012
2019-02-21T08:29:21.524Z,63.867188
2019-02-21T08:30:32.889Z,63.562012
2019-02-21T08:31:40.542Z,63.531494
2019-02-21T08:32:50.037Z,63.220215
2019-02-21T08:33:59.554Z,62.164307
2019-02-21T08:35:09.054Z,62.371826
2019-02-21T08:36:18.580Z,62.091064
2019-02-21T08:37:28.097Z,62.60376
2019-02-21T08:38:37.606Z,63.323975
2019-02-21T08:39:47.372Z,63.122559
2019-02-21T08:40:57.231Z,62.780762
2019-02-21T08:42:06.511Z,61.724854
2019-02-21T08:43:16.032Z,61.108398
2019-02-21T08:44:28.768Z,60.906982
2019-02-21T08:45:36.059Z,60.876465
2019-02-21T08:46:45.587Z,60.028076
2019-02-21T08:47:55.109Z,60.26001
2019-02-21T08:49:04.657Z,60.229492
2019-02-21T08:50:14.159Z,59.307861
2019-02-21T08:51:23.679Z,59.411621
2019-02-21T08:52:33.180Z,59.307861
2019-02-21T08:53:42.685Z,59.307861
2019-02-21T08:54:59.750Z,59.515381
2019-02-21T08:56:02.712Z,59.619141
2019-02-21T08:57:12.231Z,59.484863
2019-02-21T08:58:22.726Z,58.563232
2019-02-21T08:59:32.249Z,58.331299
2019-02-21T09:00:41.756Z,58.099365
2019-02-21T09:01:51.326Z,57.250977
2019-02-21T09:03:00.871Z,57.147217
2019-02-21T09:04:24.090Z,56.610107
2019-02-21T09:05:20.871Z,56.506348
2019-02-21T09:06:30.381Z,55.767822
2019-02-21T09:07:39.904Z,55.432129
2019-02-21T09:08:50.400Z,55.432129
2019-02-21T09:09:59.925Z,55.102539
2019-02-21T09:11:09.439Z,55.230713
2019-02-21T09:12:18.957Z,55.535889
2019-02-21T09:13:28.475Z,55.102539
2019-02-21T09:14:38.037Z,54.998779
2019-02-21T09:15:47.522Z,54.89502
2019-02-21T09:16:57.054Z,54.284668
2019-02-21T09:18:06.556Z,54.589844
2019-02-21T09:19:16.111Z,54.89502
2019-02-21T09:20:25.639Z,55.102539
2019-02-21T09:21:35.144Z,54.998779
2019-02-21T09:22:44.655Z,54.998779
2019-02-21T09:23:56.528Z,55.175781
2019-02-21T09:25:03.706Z,54.766846
2019-02-21T09:26:13.235Z,54.541016
2019-02-21T09:27:22.724Z,53.69873
2019-02-21T09:28:32.265Z,53.387451
2019-02-21T09:29:41.797Z,53.619385
2019-02-21T09:30:51.300Z,54.02832
2019-02-21T09:32:00.829Z,53.796387
2019-02-21T09:33:17.255Z,53.796387
2019-02-21T09:34:21.834Z,53.466797
2019-02-21T09:35:31.357Z,52.832031
2019-02-21T09:36:40.879Z,52.960205
2019-02-21T09:37:51.425Z,52.319336
2019-02-21T09:39:00.888Z,52.22168
2019-02-21T09:40:10.820Z,52.398682
2019-02-21T09:41:19.915Z,51.812744
2019-02-21T09:42:29.415Z,52.398682
2019-02-21T09:43:38.924Z,51.763916
2019-02-21T09:44:49.776Z,51.434326
2019-02-21T09:45:57.941Z,51.12915
2019-02-21T09:47:07.448Z,50.775146
2019-02-21T09:48:16.972Z,49.835205
2019-02-21T09:49:26.489Z,49.09668
2019-02-21T09:50:36.004Z,48.852539
2019-02-21T09:51:45.597Z,48.443604
2019-02-21T09:52:55.057Z,48.974609
2019-02-21T09:54:04.567Z,49.09668
2019-02-21T09:55:14.089Z,49.401855
2019-02-21T09:56:30.154Z,50.012207
2019-02-21T09:57:34.061Z,50.396729
2019-02-21T09:58:45.767Z,49.359131
2019-02-21T09:59:53.111Z,48.828125
2019-02-21T10:01:02.625Z,47.991943
2019-02-21T10:02:12.148Z,47.668457
2019-02-21T10:03:21.657Z,47.766113
2019-02-21T10:04:32.266Z,47.363281
2019-02-21T10:05:40.699Z,46.856689
2019-02-21T10:06:50.216Z,46.5271
2019-02-21T10:07:59.722Z,47.845459
2019-02-21T10:09:09.263Z,50.98877
2019-02-21T10:10:18.799Z,47.821045
2019-02-21T10:11:28.305Z,47.192383
2019-02-21T10:12:37.809Z,46.362305
2019-02-21T10:13:47.325Z,48.059082
2019-02-21T10:14:56.839Z,45.550537
2019-02-21T10:16:06.354Z,45.245361
2019-02-21T10:17:15.855Z,45.550537
2019-02-21T10:18:25.364Z,45.550537
2019-02-21T10:19:35.661Z,46.081543
2019-02-21T10:20:44.388Z,46.990967
2019-02-21T10:21:53.980Z,48.309326
2019-02-21T10:23:03.414Z,47.033691
2019-02-21T10:24:12.919Z,47.845459
2019-02-21T10:25:23.192Z,48.376465
2019-02-21T10:26:31.949Z,48.297119
2019-02-21T10:27:41.461Z,48.095703
2019-02-21T10:28:50.962Z,48.828125
2019-02-21T10:30:00.471Z,49.536133
2019-02-21T10:31:10.000Z,49.212646
2019-02-21T10:32:19.546Z,48.681641
2019-02-21T10:33:29.042Z,47.845459
2019-02-21T10:34:42.864Z,47.723389
2019-02-21T10:35:48.052Z,47.216797
2019-02-21T10:36:57.568Z,46.789551
2019-02-21T10:38:07.096Z,46.887207
2019-02-21T10:39:16.607Z,46.807861
2019-02-21T10:40:26.185Z,47.589111
2019-02-21T10:41:35.791Z,49.255371
2019-02-21T10:42:45.311Z,49.664307
2019-02-21T10:43:54.837Z,49.438477
2019-02-21T10:45:04.334Z,50.024414
2019-02-21T10:46:13.883Z,49.108887
2019-02-21T10:47:23.394Z,48.272705
2019-02-21T10:48:32.904Z,48.962402
2019-02-21T10:49:42.425Z,48.760986
2019-02-21T10:50:51.955Z,47.949219
2019-02-21T10:52:01.460Z,47.619629
2019-02-21T10:53:10.961Z,47.619629
2019-02-21T10:54:20.463Z,47.644043
2019-02-21T10:55:29.970Z,48.254395
2019-02-21T10:56:39.506Z,48.175049
2019-02-21T10:57:49.039Z,48.095703
2019-02-21T10:58:58.576Z,48.626709
2019-02-21T11:00:08.087Z,49.664307
2019-02-21T11:01:17.614Z,49.969482
2019-02-21T11:02:27.118Z,49.761963
2019-02-21T11:03:36.627Z,50.067139
2019-02-21T11:04:54.301Z,50.830078
2019-02-21T11:05:56.648Z,50.854492
2019-02-21T11:07:06.169Z,51.5625
2019-02-21T11:08:15.667Z,52.099609
2019-02-21T11:09:25.202Z,52.124023
2019-02-21T11:10:34.705Z,53.161621
2019-02-21T11:11:44.243Z,53.570557
2019-02-21T11:12:53.764Z,53.80249
2019-02-21T11:14:03.276Z,54.083252
2019-02-21T11:15:12.807Z,54.821777
2019-02-21T11:16:22.330Z,54.821777
2019-02-21T11:17:31.857Z,54.309082
2019-02-21T11:18:41.381Z,54.510498
2019-02-21T11:19:50.890Z,54.821777
2019-02-21T11:21:00.436Z,54.846191
2019-02-21T11:22:09.953Z,55.072021
2019-02-21T11:23:19.457Z,55.786133
2019-02-21T11:24:29.995Z,55.688477
2019-02-21T11:25:39.537Z,55.480957
2019-02-21T11:26:49.062Z,55.352783
2019-02-21T11:27:58.586Z,55.352783
2019-02-21T11:29:08.113Z,55.126953
2019-02-21T11:30:17.637Z,54.614258
2019-02-21T11:31:27.981Z,54.412842
2019-02-21T11:32:36.674Z,54.638672
2019-02-21T11:33:46.196Z,55.560303
2019-02-21T11:35:05.685Z,55.047607
2019-02-21T11:36:06.252Z,55.657959
2019-02-21T11:37:15.754Z,55.352783
2019-02-21T11:38:25.272Z,55.047607
2019-02-21T11:39:34.811Z,55.657959
2019-02-21T11:40:44.325Z,55.383301
2019-02-21T11:41:53.857Z,55.786133
2019-02-21T11:43:03.395Z,56.427002
2019-02-21T11:44:12.942Z,56.658936
2019-02-21T11:45:22.456Z,56.860352
2019-02-21T11:46:31.972Z,57.269287
2019-02-21T11:47:41.493Z,56.530762
2019-02-21T11:48:51.010Z,56.530762
2019-02-21T11:50:00.526Z,56.835938
2019-02-21T11:51:10.133Z,56.500244
2019-02-21T11:52:19.663Z,55.584717
2019-02-21T11:53:29.170Z,55.584717
2019-02-21T11:54:38.700Z,54.614258
2019-02-21T11:55:48.221Z,53.546143
2019-02-21T11:56:57.771Z,52.197266
2019-02-21T11:58:07.323Z,51.77002
2019-02-21T11:59:16.833Z,51.538086
2019-02-21T12:00:26.340Z,51.721191
2019-02-21T12:01:35.880Z,51.062012
2019-02-21T12:02:45.397Z,50.653076
2019-02-21T12:03:54.911Z,49.719238
2019-02-21T12:05:04.445Z,49.365234
2019-02-21T12:06:14.941Z,47.393799
2019-02-21T12:07:24.468Z,46.282959
2019-02-21T12:08:33.981Z,46.66748
2019-02-21T12:09:43.513Z,45.98999
2019-02-21T12:10:53.027Z,44.415283
2019-02-21T12:12:02.558Z,44.512939
2019-02-21T12:13:12.071Z,43.365479
2019-02-21T12:14:21.595Z,46.179199
2019-02-21T12:15:31.111Z,46.099854
2019-02-21T12:16:40.636Z,47.155762
2019-02-21T12:17:50.163Z,47.790527
2019-02-21T12:18:59.660Z,48.193359
2019-02-21T12:20:09.170Z,48.748779
2019-02-21T12:21:18.686Z,50.012207
2019-02-21T12:22:28.262Z,50.750732
2019-02-21T12:23:37.794Z,50.830078
2019-02-21T12:24:47.303Z,50.854492
2019-02-21T12:25:56.828Z,51.055908
2019-02-21T12:27:06.398Z,51.177979
2019-02-21T12:28:15.921Z,51.89209
2019-02-21T12:29:25.443Z,51.257324
2019-02-21T12:30:34.939Z,50.598145
2019-02-21T12:31:44.497Z,49.560547
2019-02-21T12:32:54.069Z,49.639893
2019-02-21T12:34:03.588Z,48.522949
2019-02-21T12:35:13.105Z,49.481201
2019-02-21T12:36:23.637Z,50.396729
2019-02-21T12:37:33.170Z,50.90332
2019-02-21T12:38:42.695Z,51.00708
2019-02-21T12:39:52.229Z,50.195312
2019-02-21T12:41:02.406Z,50.292969
2019-02-21T12:42:11.254Z,50.701904
2019-02-21T12:43:20.770Z,50.701904
2019-02-21T12:44:30.292Z,50.701904
2019-02-21T12:45:39.793Z,50.701904
2019-02-21T12:46:49.409Z,50.726318
2019-02-21T12:47:58.932Z,51.031494
2019-02-21T12:49:10.601Z,50.292969
2019-02-21T12:50:17.934Z,49.560547
2019-02-21T12:51:27.445Z,49.945068
2019-02-21T12:52:36.977Z,49.310303
2019-02-21T12:53:46.487Z,48.297119
2019-02-21T12:54:56.010Z,48.297119
2019-02-21T12:56:05.521Z,48.400879
2019-02-21T12:57:15.065Z,49.029541
2019-02-21T12:58:24.600Z,49.212646
2019-02-21T12:59:34.108Z,48.803711
2019-02-21T13:00:43.641Z,48.681641
2019-02-21T13:01:53.174Z,48.480225
2019-02-21T13:03:02.690Z,47.949219
2019-02-21T13:04:12.211Z,47.949219
2019-02-21T13:05:21.730Z,47.894287
2019-02-21T13:06:31.290Z,48.498535
2019-02-21T13:07:40.801Z,49.133301
2019-02-21T13:08:50.326Z,49.438477
2019-02-21T13:09:59.834Z,49.359131
2019-02-21T13:11:09.380Z,49.993896
2019-02-21T13:12:18.915Z,50.854492
2019-02-21T13:13:28.445Z,50.854492
2019-02-21T13:14:37.968Z,51.055908
2019-02-21T13:15:47.474Z,50.622559